WetterOnline ( https://www.wetteronline.de )

Wetter aktuell Aumühle

Aktuelles Wetter: Boizenburg (46m)

6-stündlich | Neueste Meldungen
Ortszeit Temperatur Wetter
Do, 26.11. 19:00 6.8° C bedeckt
Do, 26.11. 13:00 8.3° C bewölkt
Do, 26.11. 7:00 5.9° C bedeckt
Do, 26.11. 1:00 0.2° C Nebel
Mi, 25.11. 19:00 2.0° C Nebel
Mi, 25.11. 13:00 3.2° C bedeckt
Mi, 25.11. 7:00 0.7° C bedeckt
Mi, 25.11. 1:00 3.3° C wolkig
Ortszeit Temperatur Wetter
Do, 26.11. 21:30 6.3° C bedeckt
Do, 26.11. 21:20 6.3° C bedeckt
Do, 26.11. 21:10 6.4° C bedeckt
Do, 26.11. 21:00 6.2° C bedeckt
Do, 26.11. 20:50 6.2° C bedeckt
Do, 26.11. 20:40 6.2° C bedeckt
Do, 26.11. 20:30 6.0° C bedeckt
Do, 26.11. 20:00 6.5° C wolkig
Ortszeit Relative Feuchte Sichtweite
Do, 26.11. 19:00 99% 6 km
Do, 26.11. 13:00 99% 2.5 km
Do, 26.11. 7:00 100% 2.4 km
Do, 26.11. 1:00 100% 0.4 km
Mi, 25.11. 19:00 100% 0.4 km
Mi, 25.11. 13:00 98% 6 km
Mi, 25.11. 7:00 99% 3.9 km
Mi, 25.11. 1:00 96% 16 km
Ortszeit Relative Feuchte Sichtweite
Do, 26.11. 21:30 98% 10 km
Do, 26.11. 21:20 98% -
Do, 26.11. 21:10 98% -
Do, 26.11. 21:00 99% 9 km
Do, 26.11. 20:50 99% -
Do, 26.11. 20:40 99% -
Do, 26.11. 20:30 99% 8 km
Do, 26.11. 20:00 98% 13 km
Ortszeit Niederschlagsmenge Niederschlagsart
Do, 26.11. 19:00 0.3 l/m2 in 12 Std. Sprühregen
Do, 26.11. 13:00 0.3 l/m2 in 6 Std. Regen
Do, 26.11. 7:00 0.1 l/m2 in 12 Std. Regen
Do, 26.11. 1:00 0.0 l/m2 in 6 Std. -
Mi, 25.11. 19:00 0.0 l/m2 in 12 Std. -
Mi, 25.11. 13:00 0.0 l/m2 in 6 Std. -
Mi, 25.11. 7:00 0.0 l/m2 in 12 Std. -
Mi, 25.11. 1:00 0.0 l/m2 in 6 Std. -
Ortszeit Niederschlagsmenge Niederschlagsart
Do, 26.11. 21:30 0.0 l/m2 in 1 Std. -
Do, 26.11. 21:20 keine Meldung -
Do, 26.11. 21:10 keine Meldung -
Do, 26.11. 21:00 0.0 l/m2 in 1 Std. -
Do, 26.11. 20:50 keine Meldung -
Do, 26.11. 20:40 keine Meldung -
Do, 26.11. 20:30 0.0 l/m2 in 1 Std. -
Do, 26.11. 20:00 0.0 l/m2 in 1 Std. -
Ortszeit Stärke Spitze Richtung
km/h Bft. km/h Grad Sektor
Do, 26.11. 19:00 7 2 25 240° SW
Do, 26.11. 13:00 13 3 26 250° W
Do, 26.11. 7:00 13 3 24 210° SW
Do, 26.11. 1:00 7 2 22 150° SO
Mi, 25.11. 19:00 11 2 22 140° SO
Mi, 25.11. 13:00 11 2 24 140° SO
Mi, 25.11. 7:00 7 2 20 130° SO
Mi, 25.11. 1:00 11 2 31 170° S
Ortszeit Stärke Spitze Richtung
km/h Bft. km/h Grad Sektor
Do, 26.11. 21:30 11 2 14 240° SW
Do, 26.11. 21:20 11 2 - 240° SW
Do, 26.11. 21:10 9 2 - 240° SW
Do, 26.11. 21:00 9 2 13 230° SW
Do, 26.11. 20:50 9 2 - 230° SW
Do, 26.11. 20:40 9 2 - 230° SW
Do, 26.11. 20:30 7 2 11 240° SW
Do, 26.11. 20:00 7 2 9 250° W
Ortszeit Untergrenze Bedeckung Gattung
total tief tief mittel hoch
Do, 26.11. 19:00 2700 m 8/8 8/8 - - -
Do, 26.11. 13:00 90 m 7/8 7/8 - - -
Do, 26.11. 7:00 90 m 8/8 8/8 - - -
Do, 26.11. 1:00 <30 m 8/8 0/8 - - -
Mi, 25.11. 19:00 <30 m 8/8 0/8 - - -
Mi, 25.11. 13:00 90 m 8/8 8/8 - - -
Mi, 25.11. 7:00 5100 m 8/8 8/8 - - -
Mi, 25.11. 1:00 750 m 8/8 2/8 - - -
Ortszeit Bedeckungsgrad in Achtel und Wolkenuntergrenze
Do, 26.11. 21:30 4(3300m) 8(4800m)
Do, 26.11. 21:20 4(3300m) 8(4800m)
Do, 26.11. 21:10 7(3300m) 8(4800m)
Do, 26.11. 21:00 8(3000m) 8(4500m) 8(5100m)
Do, 26.11. 20:50 8(3000m) 8(4500m) 8(5100m)
Do, 26.11. 20:40 7(3000m) 8(4500m) 8(5100m)
Do, 26.11. 20:30 7(3000m) 8(4200m) 8(4800m)
Do, 26.11. 20:00 3(2400m) 8(3300m) 8(4200m)
Ortszeit Luftdruck NN (hPa) Tendenz (hPa in 3 Std.)
Do, 26.11. 19:00 1021 + 0,8
Do, 26.11. 13:00 1019 + 0,3
Do, 26.11. 7:00 1018 - 0,1
Do, 26.11. 1:00 1019 0,0
Mi, 25.11. 19:00 1018 + 0,4
Mi, 25.11. 13:00 1018 - 1,0
Mi, 25.11. 7:00 1018 - 0,4
Mi, 25.11. 1:00 1020 - 1,4
Ortszeit Luftdruck NN (hPa) Tendenz (hPa in 3 Std.)
Do, 26.11. 21:30 1021 + 0,2
Do, 26.11. 21:20 1021 keine Meldung
Do, 26.11. 21:10 1021 keine Meldung
Do, 26.11. 21:00 1021 + 0,4
Do, 26.11. 20:50 1021 keine Meldung
Do, 26.11. 20:40 1021 keine Meldung
Do, 26.11. 20:30 1021 + 0,6
Do, 26.11. 20:00 1020 + 0,4
Ortszeit Schneehöhe (cm)
Do, 26.11. 19:00 0
Do, 26.11. 13:00 0
Do, 26.11. 7:00 0
Do, 26.11. 1:00 0
Mi, 25.11. 19:00 0
Mi, 25.11. 13:00 0
Mi, 25.11. 7:00 0
Mi, 25.11. 1:00 0
Ortszeit Schneehöhe (cm)
Do, 26.11. 21:30 0
Do, 26.11. 21:20 0
Do, 26.11. 21:10 0
Do, 26.11. 21:00 0
Do, 26.11. 20:50 0
Do, 26.11. 20:40 0
Do, 26.11. 20:30 0
Do, 26.11. 20:00 0
Link zu dieser Seite / Seite empfehlen

Das Wetter in ...